Time;durP1;ratioP1;P1;durP2;ratioP2;P2;SDS_P1;SDS_P2;PMS_P1;PMS_P2;Temp;Humidity;BMP_temperature;BMP_pressure;BME280_temperature;BME280_humidity;BME280_pressure;Samples;Min_cycle;Max_cycle;Signal;HPM_P1;HPM_P2
2022/01/16 00:01:57;;;;;;;22.10;12.57;;;;;;;0.56;100.00;101304.38;6321394;28;20483;-85
2022/01/16 00:04:29;;;;;;;25.70;13.23;;;;;;;0.54;100.00;101303.56;6322576;28;20384;-85
2022/01/16 00:07:31;;;;;;;23.85;12.73;;;;;;;0.53;100.00;101296.81;6310126;28;20044;-85
2022/01/16 00:10:33;;;;;;;22.13;12.00;;;;;;;0.52;100.00;101312.13;6320299;28;20540;-85
2022/01/16 00:13:42;;;;;;;23.58;12.23;;;;;;;0.56;100.00;101276.34;6326031;28;20051;-85
2022/01/16 00:16:48;;;;;;;19.33;11.18;;;;;;;0.55;100.00;101269.59;6324884;28;20047;-85
2022/01/16 00:19:51;;;;;;;20.15;11.30;;;;;;;0.48;100.00;101278.25;6305657;28;20420;-85
2022/01/16 00:22:54;;;;;;;22.52;12.43;;;;;;;0.45;100.00;101270.69;6325551;28;20044;-85
2022/01/16 00:25:56;;;;;;;21.42;11.18;;;;;;;0.42;100.00;101278.41;6332260;28;20036;-85
2022/01/16 00:28:59;;;;;;;23.40;11.80;;;;;;;0.41;100.00;101281.81;6329373;28;20036;-85
2022/01/16 00:32:01;;;;;;;20.17;11.27;;;;;;;0.49;100.00;101285.00;6331037;28;20411;-85
2022/01/16 00:35:05;;;;;;;20.00;11.27;;;;;;;0.49;100.00;101292.66;6331168;28;20058;-85
2022/01/16 00:38:08;;;;;;;19.92;11.27;;;;;;;0.54;100.00;101305.28;6331734;28;20043;-85
2022/01/16 00:41:15;;;;;;;20.92;10.90;;;;;;;0.54;100.00;101288.28;6333761;28;20046;-85
2022/01/16 00:44:17;;;;;;;22.00;11.35;;;;;;;0.59;100.00;101275.44;6330388;28;20174;-85
2022/01/16 00:47:19;;;;;;;20.25;10.43;;;;;;;0.54;100.00;101252.63;6309550;28;20032;-85
2022/01/16 00:50:21;;;;;;;22.45;11.48;;;;;;;0.53;100.00;101245.88;6329766;28;20067;-85
2022/01/16 00:53:23;;;;;;;20.45;10.55;;;;;;;0.57;100.00;101252.56;6331130;28;20044;-85
2022/01/16 00:56:25;;;;;;;20.23;11.43;;;;;;;0.60;100.00;101232.09;6330708;28;20088;-85
2022/01/16 00:59:27;;;;;;;20.33;10.40;;;;;;;0.69;100.00;101223.34;6332864;28;20039;-85
2022/01/16 01:02:29;;;;;;;20.58;10.85;;;;;;;0.69;100.00;101222.53;6325999;28;20503;-85
2022/01/16 01:05:32;;;;;;;17.90;9.45;;;;;;;0.63;100.00;101224.38;6327795;28;20036;-85
2022/01/16 01:08:35;;;;;;;19.83;11.18;;;;;;;0.64;100.00;101237.94;6328316;28;20152;-85
2022/01/16 01:11:38;;;;;;;22.33;11.95;;;;;;;0.65;100.00;101198.88;6331182;28;20039;-85
2022/01/16 01:15:12;;;;;;;25.17;11.45;;;;;;;0.68;100.00;101197.94;6327662;28;20051;-85
2022/01/16 01:18:15;;;;;;;24.35;11.95;;;;;;;0.68;100.00;101192.84;6330585;28;20065;-85
2022/01/16 01:21:28;;;;;;;18.98;10.55;;;;;;;0.69;100.00;101197.06;6326490;28;20130;-85
2022/01/16 01:24:33;;;;;;;20.65;10.05;;;;;;;0.69;100.00;101199.59;6330223;28;20139;-85
2022/01/16 01:27:35;;;;;;;18.67;10.07;;;;;;;0.69;100.00;101202.16;6331105;28;20175;-85
2022/01/16 01:30:39;;;;;;;21.17;11.27;;;;;;;0.63;100.00;101204.00;6327925;28;20540;-85
2022/01/16 01:33:41;;;;;;;18.48;10.02;;;;;;;0.65;100.00;101221.78;6317110;28;20492;-85
2022/01/16 01:36:48;;;;;;;18.80;10.98;;;;;;;0.69;100.00;101209.78;6326868;28;20035;-85
2022/01/16 01:40:06;;;;;;;18.35;10.15;;;;;;;0.76;100.00;101209.59;6320737;28;20067;-85
2022/01/16 01:52:54;;;;;;;16.63;8.65;;;;;;;-145.48;100.00;64539.38;6330961;28;20059;-85
2022/01/16 01:55:56;;;;;;;16.98;9.57;;;;;;;-145.48;100.00;64539.38;6334966;28;20447;-85
2022/01/16 01:59:06;;;;;;;18.63;9.77;;;;;;;-145.48;100.00;64539.38;6331237;28;20036;-85
2022/01/16 02:02:08;;;;;;;19.38;10.02;;;;;;;-145.48;100.00;64539.38;6316044;28;20048;-85
2022/01/16 02:05:16;;;;;;;18.10;9.23;;;;;;;-145.48;100.00;64539.38;6327581;28;20490;-85
2022/01/16 02:08:37;;;;;;;19.38;10.18;;;;;;;-145.48;100.00;64539.38;6332888;28;20105;-85
2022/01/16 02:11:40;;;;;;;19.30;9.27;;;;;;;0.68;100.00;101136.81;6330750;28;20047;-84
2022/01/16 02:15:27;;;;;;;20.65;9.95;;;;;;;0.46;100.00;101142.47;6326346;28;20463;-85
2022/01/16 02:28:54;;;;;;;15.50;8.65;;;;;;;0.55;100.00;101142.22;6323905;28;20563;-85
2022/01/16 02:35:07;;;;;;;;;;;;;;;0.52;100.00;101155.06;6308907;28;20282;-85
2022/01/16 02:38:11;;;;;;;14.95;8.15;;;;;;;0.52;100.00;101149.09;6306364;28;20403;-85
2022/01/16 02:41:14;;;;;;;14.88;7.53;;;;;;;0.52;100.00;101142.31;6325155;28;20039;-85
2022/01/16 02:44:22;;;;;;;14.63;8.30;;;;;;;0.49;100.00;101154.28;6323179;28;20047;-85
2022/01/16 02:47:24;;;;;;;16.98;7.45;;;;;;;0.40;100.00;101138.38;6325445;28;20075;-85
2022/01/16 02:50:38;;;;;;;12.68;7.38;;;;;;;0.50;100.00;101145.75;6321821;28;20042;-85
2022/01/16 02:53:41;;;;;;;17.58;8.45;;;;;;;0.47;100.00;101121.22;6307024;28;20040;-85
2022/01/16 02:56:45;;;;;;;14.27;7.70;;;;;;;0.42;100.00;101115.41;6309542;28;20563;-85
2022/01/16 02:59:54;;;;;;;12.75;7.05;;;;;;;0.39;100.00;101126.50;6290288;28;20078;-85
2022/01/16 03:02:56;;;;;;;13.15;7.68;;;;;;;0.37;100.00;101135.94;6327371;28;20735;-85
2022/01/16 03:05:59;;;;;;;14.18;7.57;;;;;;;0.35;100.00;101135.13;6315053;28;20047;-85
2022/01/16 03:09:06;;;;;;;14.45;7.82;;;;;;;0.34;100.00;101128.34;6320873;28;20235;-85
2022/01/16 03:12:09;;;;;;;14.07;7.45;;;;;;;0.34;100.00;101125.81;6321028;28;20040;-85
2022/01/16 03:15:14;;;;;;;12.38;6.85;;;;;;;0.32;100.00;101121.63;6328092;28;20126;-85
2022/01/16 03:24:40;;;;;;;;;;;;;;;0.33;100.00;101118.22;6329930;28;20051;-85
2022/01/16 03:27:42;;;;;;;13.75;7.10;;;;;;;0.32;100.00;101114.81;6310773;28;20449;-85
2022/01/16 03:30:45;;;;;;;11.05;5.97;;;;;;;0.31;100.00;101117.44;6324394;28;20036;-85
2022/01/16 03:33:47;;;;;;;15.32;6.95;;;;;;;0.33;100.00;101120.78;6319695;28;20335;-85
2022/01/16 03:36:49;;;;;;;10.95;6.53;;;;;;;0.27;100.00;101114.13;6324496;28;20040;-85
2022/01/16 03:39:51;;;;;;;11.48;5.97;;;;;;;0.27;100.00;101111.56;6319954;28;20149;-85
2022/01/16 03:42:53;;;;;;;9.30;5.20;;;;;;;0.26;100.00;101116.72;6323822;28;20146;-85
2022/01/16 03:45:55;;;;;;;8.73;5.15;;;;;;;0.24;100.00;101116.75;6323695;28;20750;-85
2022/01/16 03:48:57;;;;;;;11.02;5.82;;;;;;;0.26;100.00;101109.91;6313768;28;20043;-85
2022/01/16 03:52:00;;;;;;;10.55;5.97;;;;;;;0.23;100.00;101104.06;6326265;28;20046;-85
2022/01/16 03:55:03;;;;;;;15.40;8.50;;;;;;;0.25;100.00;101120.13;6330393;28;20055;-85
2022/01/16 03:58:05;;;;;;;17.00;8.80;;;;;;;0.11;100.00;101112.88;6320941;28;20235;-85
2022/01/16 04:01:07;;;;;;;17.17;9.23;;;;;;;0.07;100.00;101119.72;6325963;28;20460;-85
2022/01/16 04:04:10;;;;;;;15.13;8.73;;;;;;;0.10;100.00;101122.22;6326249;28;20040;-85
2022/01/16 04:07:31;;;;;;;17.70;8.50;;;;;;;0.07;100.00;101129.09;6324641;28;20040;-85
2022/01/16 04:10:33;;;;;;;18.33;9.68;;;;;;;0.03;100.00;101141.06;6305432;28;20089;-85
2022/01/16 04:13:36;;;;;;;16.33;8.95;;;;;;;0.03;100.00;101145.31;6322513;28;20155;-85
2022/01/16 04:16:38;;;;;;;14.38;7.93;;;;;;;-0.04;100.00;101137.81;6321898;28;20052;-85
2022/01/16 04:19:40;;;;;;;18.40;9.70;;;;;;;-0.12;100.00;101139.75;6325195;28;20032;-85
2022/01/16 04:22:43;;;;;;;15.73;8.60;;;;;;;-0.17;100.00;101141.56;6322652;28;20051;-85
2022/01/16 04:25:45;;;;;;;17.40;9.55;;;;;;;-0.20;100.00;101138.25;6325434;28;20088;-85
2022/01/16 04:28:47;;;;;;;16.02;8.23;;;;;;;-0.20;100.00;101150.97;6323125;28;20046;-85
2022/01/16 04:31:49;;;;;;;16.88;9.80;;;;;;;-0.22;100.00;101153.56;6322913;28;20491;-85
2022/01/16 04:34:51;;;;;;;18.73;9.90;;;;;;;-0.27;100.00;101145.22;6324464;28;20048;-85
2022/01/16 04:37:53;;;;;;;21.02;10.27;;;;;;;-0.23;100.00;101162.88;6320947;28;20055;-85
2022/01/16 04:44:26;;;;;;;21.23;9.57;;;;;;;-0.22;100.00;101156.94;6309695;28;20655;-85
2022/01/16 04:47:29;;;;;;;16.45;9.45;;;;;;;-0.18;100.00;101169.56;6321394;28;20078;-85
2022/01/16 04:50:31;;;;;;;17.70;9.25;;;;;;;-0.21;100.00;101165.41;6324592;28;20035;-85
2022/01/16 04:53:33;;;;;;;14.75;7.70;;;;;;;-0.21;100.00;101165.41;6321064;28;20098;-85
2022/01/16 04:56:35;;;;;;;16.52;8.18;;;;;;;-0.21;100.00;101155.22;6324906;28;20036;-85
2022/01/16 04:59:38;;;;;;;11.85;6.45;;;;;;;-0.22;100.00;101139.13;6322930;28;20128;-85
2022/01/16 05:02:41;;;;;;;9.38;4.93;;;;;;;-0.20;100.00;101130.59;6313513;28;20040;-85
2022/01/16 05:05:43;;;;;;;8.00;4.60;;;;;;;-0.09;100.00;101110.84;6321806;28;20048;-85
2022/01/16 05:08:45;;;;;;;9.50;5.32;;;;;;;0.01;100.00;101101.25;6327186;28;20044;-85
2022/01/16 05:11:54;;;;;;;9.20;4.68;;;;;;;0.03;100.00;101107.97;6329716;28;20039;-85
2022/01/16 05:18:16;;;;;;;7.97;5.00;;;;;;;0.10;100.00;101104.41;6327412;28;20043;-85
2022/01/16 05:21:25;;;;;;;11.32;5.47;;;;;;;0.15;100.00;101102.56;6329077;28;20571;-85
2022/01/16 05:24:32;;;;;;;9.90;5.22;;;;;;;0.12;100.00;101095.00;6325338;28;20075;-85
2022/01/16 05:27:35;;;;;;;8.90;5.15;;;;;;;0.12;100.00;101095.00;6323460;28;20040;-85
2022/01/16 05:30:37;;;;;;;9.98;5.00;;;;;;;0.11;100.00;101082.31;6325018;28;20067;-85
2022/01/16 05:33:39;;;;;;;9.07;5.53;;;;;;;0.12;100.00;101097.53;6330647;28;20050;-85
2022/01/16 05:36:41;;;;;;;8.73;5.38;;;;;;;0.29;100.00;101121.72;6322878;28;20043;-85
2022/01/16 05:39:46;;;;;;;9.25;5.60;;;;;;;0.27;100.00;101124.28;6325434;28;20040;-85
2022/01/16 05:42:54;;;;;;;9.40;5.28;;;;;;;0.31;100.00;101115.72;6327339;28;20109;-85
2022/01/16 05:45:56;;;;;;;10.23;5.75;;;;;;;0.62;100.00;101125.91;6321265;28;20050;-85
2022/01/16 05:48:58;;;;;;;10.50;5.90;;;;;;;0.66;100.00;101126.63;6308576;28;20050;-85
2022/01/16 05:52:00;;;;;;;10.05;5.97;;;;;;;0.83;100.00;101132.09;6322510;28;20194;-85
2022/01/16 05:55:02;;;;;;;9.60;5.57;;;;;;;0.82;100.00;101144.88;6304131;28;20424;-85
2022/01/16 05:58:17;;;;;;;9.18;6.00;;;;;;;0.92;100.00;101141.19;6325540;28;20653;-84
2022/01/16 06:01:19;;;;;;;10.00;5.30;;;;;;;0.89;100.00;101135.34;6325877;28;20051;-84
2022/01/16 06:04:21;;;;;;;10.10;6.40;;;;;;;0.93;100.00;101127.56;6304420;28;20050;-85
2022/01/16 06:07:23;;;;;;;10.15;5.88;;;;;;;0.88;100.00;101126.88;6313962;28;20617;-85
2022/01/16 06:10:25;;;;;;;12.70;6.57;;;;;;;0.82;100.00;101117.69;6323277;28;20039;-85
2022/01/16 06:13:27;;;;;;;11.00;6.38;;;;;;;0.89;100.00;101122.59;6306169;28;20181;-85
2022/01/16 06:16:30;;;;;;;11.43;6.47;;;;;;;0.84;100.00;101118.47;6325221;28;20523;-85
2022/01/16 06:19:32;;;;;;;12.23;7.28;;;;;;;0.88;100.00;101119.22;6322911;28;20032;-85
2022/01/16 06:22:35;;;;;;;13.07;7.57;;;;;;;0.91;100.00;101119.13;6326179;28;20043;-85
2022/01/16 06:25:38;;;;;;;12.10;7.47;;;;;;;0.81;100.00;101116.00;6328702;28;20044;-85
2022/01/16 06:28:40;;;;;;;10.77;7.13;;;;;;;0.77;100.00;101111.91;6324972;28;20040;-85
2022/01/16 06:31:42;;;;;;;13.77;7.80;;;;;;;0.76;100.00;101117.84;6326729;28;20051;-85
2022/01/16 06:34:44;;;;;;;14.05;8.10;;;;;;;0.81;100.00;101108.34;6325502;28;20043;-85
2022/01/16 06:37:47;;;;;;;13.07;7.75;;;;;;;0.84;100.00;101115.91;6323986;28;20044;-85
2022/01/16 06:40:49;;;;;;;11.93;7.57;;;;;;;0.91;100.00;101119.13;6309499;28;20040;-85
2022/01/16 06:43:51;;;;;;;14.70;7.97;;;;;;;0.91;100.00;101131.88;6322637;28;20044;-85
2022/01/16 06:46:53;;;;;;;14.88;8.57;;;;;;;1.00;100.00;101116.31;6308878;28;20051;-85
2022/01/16 06:49:55;;;;;;;16.33;9.10;;;;;;;1.02;100.00;101124.75;6307495;28;20040;-85
2022/01/16 06:52:57;;;;;;;14.88;8.38;;;;;;;1.07;100.00;101119.53;6327452;28;20063;-85
2022/01/16 06:56:00;;;;;;;15.43;10.18;;;;;;;1.18;100.00;101135.31;6327493;28;20047;-85
2022/01/16 06:59:02;;;;;;;17.05;9.98;;;;;;;1.26;100.00;101141.00;6323273;28;20036;-85
2022/01/16 07:02:23;;;;;;;19.13;9.50;;;;;;;1.25;100.00;101138.53;6323678;28;20037;-85
2022/01/16 07:05:24;;;;;;;19.65;10.35;;;;;;;1.34;100.00;101140.78;6310699;28;20139;-85
2022/01/16 07:08:28;;;;;;;20.90;11.10;;;;;;;1.36;100.00;101141.56;6327767;28;20090;-85
2022/01/16 07:11:30;;;;;;;25.05;11.02;;;;;;;1.43;100.00;101158.34;6326146;28;20118;-84
2022/01/16 07:14:32;;;;;;;22.75;11.38;;;;;;;1.46;100.00;101158.25;6327553;28;20048;-84
2022/01/16 07:17:34;;;;;;;25.58;12.57;;;;;;;1.43;100.00;101162.63;6324114;28;20055;-84
2022/01/16 07:20:36;;;;;;;26.55;12.45;;;;;;;1.49;100.00;101181.13;6321800;28;20111;-84
2022/01/16 07:23:44;;;;;;;23.05;12.15;;;;;;;1.58;100.00;101181.72;6321269;28;20039;-84
2022/01/16 07:26:47;;;;;;;27.40;12.65;;;;;;;1.56;100.00;101183.50;6324010;28;20182;-84
2022/01/16 07:29:49;;;;;;;27.50;13.48;;;;;;;1.53;100.00;101181.88;6322890;28;20074;-84
2022/01/16 07:32:51;;;;;;;32.45;14.80;;;;;;;1.44;100.00;101187.25;6321671;28;20032;-84
2022/01/16 07:35:54;;;;;;;33.80;14.80;;;;;;;1.50;100.00;101189.63;6311234;28;20036;-84
2022/01/16 07:38:56;;;;;;;28.55;13.30;;;;;;;1.60;100.00;101191.00;6323090;28;20181;-84
2022/01/16 07:41:59;;;;;;;33.78;15.65;;;;;;;1.57;100.00;101186.00;6323120;28;20611;-84
2022/01/16 07:45:03;;;;;;;36.00;16.20;;;;;;;1.48;100.00;101194.75;6324359;28;20123;-84
2022/01/16 07:48:09;;;;;;;36.50;16.45;;;;;;;1.58;100.00;101180.00;6300850;28;20040;-84
2022/01/16 07:51:11;;;;;;;40.30;17.85;;;;;;;1.52;100.00;101187.88;6319385;28;20039;-84
2022/01/16 07:54:13;;;;;;;35.10;15.38;;;;;;;1.52;100.00;101185.31;6323870;28;20499;-84
2022/01/16 07:57:16;;;;;;;43.40;18.17;;;;;;;1.51;100.00;101178.53;6321690;28;20048;-85
2022/01/16 08:00:19;;;;;;;39.38;17.40;;;;;;;1.47;100.00;101174.41;6324684;28;20056;-85
2022/01/16 08:03:23;;;;;;;36.15;16.20;;;;;;;1.55;100.00;101156.31;6324490;28;20441;-85
2022/01/16 08:06:25;;;;;;;40.85;17.70;;;;;;;1.52;100.00;101170.00;6321844;28;20184;-85
2022/01/16 08:09:27;;;;;;;43.28;16.85;;;;;;;1.63;100.00;101169.66;6322149;28;20119;-85
2022/01/16 08:12:30;;;;;;;39.10;18.27;;;;;;;1.61;100.00;101162.03;6326959;28;20505;-84
2022/01/16 08:15:32;;;;;;;42.85;18.13;;;;;;;1.61;100.00;101158.66;6327139;28;20363;-84
2022/01/16 08:18:34;;;;;;;42.83;17.73;;;;;;;1.61;100.00;101153.56;6321737;28;20036;-84
2022/01/16 08:21:37;;;;;;;39.08;18.08;;;;;;;1.68;100.00;101148.22;6326830;28;20480;-84
2022/01/16 08:24:39;;;;;;;37.65;18.00;;;;;;;1.66;100.00;101151.69;6325698;28;20558;-85
2022/01/16 08:27:41;;;;;;;38.28;17.85;;;;;;;1.71;100.00;101140.47;6324816;28;20373;-85
2022/01/16 08:30:43;;;;;;;42.47;18.20;;;;;;;1.75;100.00;101143.75;6324806;28;20044;-85
2022/01/16 08:33:45;;;;;;;42.80;19.17;;;;;;;1.76;100.00;101150.50;6322307;28;20047;-85
2022/01/16 08:36:48;;;;;;;38.67;17.25;;;;;;;1.84;100.00;101152.81;6323161;28;20044;-85
2022/01/16 08:39:50;;;;;;;39.00;18.05;;;;;;;1.85;100.00;101144.28;6326205;28;20048;-85
2022/01/16 08:42:53;;;;;;;43.00;19.10;;;;;;;1.86;100.00;101151.06;6326115;28;20043;-85
2022/01/16 08:45:55;;;;;;;42.95;19.60;;;;;;;1.84;100.00;101143.47;6331114;28;20031;-85
2022/01/16 08:48:57;;;;;;;44.35;19.88;;;;;;;1.88;100.00;101150.13;6310396;28;20039;-85
2022/01/16 08:51:59;;;;;;;42.72;19.33;;;;;;;1.87;100.00;101151.00;6329516;28;20050;-85
2022/01/16 08:55:02;;;;;;;44.10;18.40;;;;;;;1.91;100.00;101144.06;6331873;28;20047;-85
2022/01/16 08:58:05;;;;;;;42.58;18.80;;;;;;;1.92;100.00;101135.56;6331815;28;20036;-85
2022/01/16 09:01:07;;;;;;;41.15;20.63;;;;;;;1.94;100.00;101144.81;6330898;28;20040;-85
2022/01/16 09:04:09;;;;;;;39.53;18.95;;;;;;;1.95;100.00;101150.75;6332492;28;20602;-85
2022/01/16 09:07:11;;;;;;;43.70;18.10;;;;;;;1.94;100.00;101144.00;6329700;28;20050;-85
2022/01/16 09:10:13;;;;;;;43.33;19.17;;;;;;;1.99;100.00;101141.25;6328344;28;20114;-85
2022/01/16 09:13:16;;;;;;;43.22;19.60;;;;;;;2.04;100.00;101141.97;6330139;28;20625;-85
2022/01/16 09:16:19;;;;;;;40.78;18.42;;;;;;;2.08;100.00;101138.41;6330817;28;20490;-85
2022/01/16 09:19:21;;;;;;;42.13;19.70;;;;;;;2.12;100.00;101143.38;6329567;28;20044;-85
2022/01/16 09:22:23;;;;;;;42.63;20.08;;;;;;;2.20;100.00;101144.84;6330282;28;20054;-85
2022/01/16 09:25:26;;;;;;;44.80;20.92;;;;;;;2.24;100.00;101141.28;6314833;28;20040;-85
2022/01/16 09:28:28;;;;;;;44.47;20.05;;;;;;;2.28;100.00;101143.66;6332089;28;20036;-85
2022/01/16 09:31:30;;;;;;;42.88;18.80;;;;;;;2.26;100.00;101130.16;6328689;28;20047;-85
2022/01/16 09:34:33;;;;;;;38.90;18.73;;;;;;;2.29;100.00;101134.31;6326392;28;20452;-85
2022/01/16 09:37:36;;;;;;;45.72;20.13;;;;;;;2.29;100.00;101137.69;6303801;28;20054;-85
2022/01/16 09:40:38;;;;;;;45.05;19.75;;;;;;;2.31;100.00;101150.38;6307251;28;20035;-85
2022/01/16 09:43:41;;;;;;;42.38;20.55;;;;;;;2.30;100.00;101148.75;6308837;28;20032;-85
2022/01/16 09:46:44;;;;;;;43.15;20.67;;;;;;;2.28;100.00;101156.44;6321997;28;20043;-85
2022/01/16 09:49:46;;;;;;;40.97;19.58;;;;;;;2.35;100.00;101163.00;6312651;28;20044;-85
2022/01/16 09:52:49;;;;;;;48.78;20.40;;;;;;;2.40;100.00;101169.69;6324086;28;20042;-85
2022/01/16 09:55:51;;;;;;;38.55;19.50;;;;;;;2.42;100.00;101166.19;6330378;28;20496;-85
2022/01/16 09:58:53;;;;;;;44.90;21.20;;;;;;;2.42;100.00;101168.75;6325166;28;20165;-85
2022/01/16 10:01:56;;;;;;;45.33;19.05;;;;;;;2.48;100.00;101175.34;6324493;28;20385;-85
2022/01/16 10:04:58;;;;;;;43.13;19.85;;;;;;;2.50;100.00;101169.31;6322588;28;20047;-85
2022/01/16 10:08:04;;;;;;;42.17;19.35;;;;;;;2.48;100.00;101176.19;6325900;28;20077;-85
2022/01/16 10:11:22;;;;;;;41.67;20.23;;;;;;;2.52;100.00;101185.44;6305181;28;20040;-85
2022/01/16 10:14:48;;;;;;;43.53;20.73;;;;;;;2.49;100.00;101187.28;6326346;28;20063;-85
2022/01/16 10:17:54;;;;;;;42.00;19.38;;;;;;;2.61;100.00;101181.72;6313341;28;20055;-85
2022/01/16 10:20:56;;;;;;;36.70;18.25;;;;;;;2.62;100.00;101196.16;6325967;28;20036;-85
2022/01/16 10:23:59;;;;;;;41.88;18.30;;;;;;;2.63;100.00;101199.53;6326750;28;20120;-85
2022/01/16 10:27:17;;;;;;;43.13;17.98;;;;;;;2.60;100.00;101190.25;6327714;28;20048;-85
2022/01/16 10:30:22;;;;;;;37.95;16.67;;;;;;;2.61;100.00;101194.50;6325032;28;20036;-85
2022/01/16 10:33:28;;;;;;;42.42;19.98;;;;;;;2.65;100.00;101185.00;6325958;28;20051;-85
2022/01/16 10:36:36;;;;;;;38.65;17.40;;;;;;;2.62;100.00;101187.66;6321715;28;20135;-85
2022/01/16 10:39:51;;;;;;;32.95;16.13;;;;;;;2.77;100.00;101176.91;6321451;28;20040;-85
2022/01/16 10:42:57;;;;;;;37.88;16.90;;;;;;;2.77;100.00;101175.16;6323003;28;20510;-85
2022/01/16 10:46:00;;;;;;;38.63;18.40;;;;;;;2.83;100.00;101175.84;6325159;28;20175;-85
2022/01/16 10:49:23;;;;;;;34.35;16.40;;;;;;;2.88;100.00;101176.50;6327974;28;20051;-85
2022/01/16 10:52:28;;;;;;;38.78;17.38;;;;;;;2.91;100.00;101166.19;6329452;28;20063;-85
2022/01/16 10:55:56;;;;;;;32.03;16.02;;;;;;;3.02;100.00;101164.03;6319810;28;20036;-85
2022/01/16 10:59:00;;;;;;;35.25;17.10;;;;;;;3.00;100.00;101176.03;6316258;28;20622;-85
2022/01/16 11:02:09;;;;;;;38.85;17.70;;;;;;;2.97;100.00;101177.00;6328932;28;20071;-85
2022/01/16 11:05:20;;;;;;;42.20;19.85;;;;;;;3.06;100.00;101173.28;6338518;28;20032;-85
2022/01/16 11:08:25;;;;;;;39.70;18.45;;;;;;;3.02;100.00;101181.94;6335902;28;20058;-85
2022/01/16 11:11:27;;;;;;;38.67;19.25;;;;;;;3.04;100.00;101172.50;6332126;28;20174;-85
2022/01/16 11:14:31;;;;;;;36.20;18.83;;;;;;;3.04;100.00;101164.81;6334818;28;20539;-85
2022/01/16 11:17:35;;;;;;;37.85;18.20;;;;;;;3.10;100.00;101163.75;6333457;28;20038;-85
2022/01/16 11:20:39;;;;;;;39.65;18.83;;;;;;;3.16;100.00;101169.47;6326434;28;20475;-85
2022/01/16 11:24:00;;;;;;;41.85;19.67;;;;;;;3.13;100.00;101158.50;6310494;28;20047;-85
2022/01/16 11:27:02;;;;;;;42.95;18.52;;;;;;;3.24;100.00;101169.19;6326945;28;20043;-85
2022/01/16 11:30:05;;;;;;;37.78;18.52;;;;;;;3.32;100.00;101174.84;6321048;28;20047;-85
2022/01/16 11:33:24;;;;;;;37.17;17.42;;;;;;;3.35;100.00;101168.78;6324828;28;20047;-85
2022/01/16 11:36:32;;;;;;;40.13;18.38;;;;;;;3.35;100.00;101168.78;6334579;28;20043;-85
2022/01/16 11:39:36;;;;;;;38.70;19.48;;;;;;;3.38;100.00;101169.50;6330007;28;20342;-85
2022/01/16 11:42:42;;;;;;;40.63;18.90;;;;;;;3.51;100.00;101167.28;6310846;28;20040;-85
2022/01/16 11:46:06;;;;;;;41.42;19.48;;;;;;;3.50;100.00;101168.16;6328031;28;20050;-85
2022/01/16 11:49:17;;;;;;;41.17;18.58;;;;;;;3.44;100.00;101169.25;6321118;28;20060;-85
2022/01/16 11:52:19;;;;;;;43.17;18.67;;;;;;;3.44;100.00;101179.47;6287980;28;20042;-85
2022/01/16 11:55:33;;;;;;;41.38;19.92;;;;;;;3.45;100.00;101163.25;6313609;28;20086;-85
2022/01/16 11:59:21;;;;;;;44.92;21.33;;;;;;;3.58;100.00;101155.94;6334674;28;20048;-85
2022/01/16 12:02:26;;;;;;;47.05;20.75;;;;;;;3.61;100.00;101166.03;6331425;28;20044;-85
2022/01/16 12:05:29;;;;;;;46.33;22.10;;;;;;;3.58;100.00;101168.72;6315864;28;20044;-85
2022/01/16 12:08:35;;;;;;;53.03;22.63;;;;;;;3.54;100.00;101153.53;6319219;28;20044;-85
2022/01/16 12:11:38;;;;;;;45.17;22.77;;;;;;;3.56;100.00;101152.59;6303708;28;20047;-85
2022/01/16 12:14:53;;;;;;;45.60;21.00;;;;;;;3.54;100.00;101151.81;6336333;28;20042;-85
2022/01/16 12:17:56;;;;;;;43.28;21.95;;;;;;;3.52;100.00;101161.28;6307618;28;20055;-85
2022/01/16 12:20:58;;;;;;;53.35;23.70;;;;;;;3.54;100.00;101148.41;6326119;28;20089;-85
2022/01/16 12:24:00;;;;;;;47.90;22.48;;;;;;;3.62;100.00;101159.19;6325739;28;20040;-85
2022/01/16 12:27:23;;;;;;;48.47;23.05;;;;;;;3.70;100.00;101148.63;6328810;28;20051;-85
2022/01/16 12:30:59;;;;;;;49.47;23.60;;;;;;;3.75;100.00;101146.72;6322112;28;20102;-85
2022/01/16 12:34:01;;;;;;;50.65;24.45;;;;;;;3.78;100.00;101154.31;6331850;28;20070;-85
2022/01/16 12:37:03;;;;;;;51.53;25.52;;;;;;;3.77;100.00;101153.44;6335171;28;20044;-85
2022/01/16 12:40:06;;;;;;;55.10;24.10;;;;;;;3.87;100.00;101154.72;6330849;28;20036;-85
2022/01/16 12:43:12;;;;;;;59.50;24.95;;;;;;;3.99;100.00;101152.56;6326383;28;20036;-85
2022/01/16 12:46:21;;;;;;;52.17;25.33;;;;;;;4.15;100.00;101158.72;6332882;28;20478;-85
2022/01/16 12:49:28;;;;;;;54.13;25.63;;;;;;;4.26;100.00;101142.91;6330716;28;20168;-85
2022/01/16 12:52:30;;;;;;;51.60;24.02;;;;;;;4.26;100.00;101148.84;6334709;28;20082;-85
2022/01/16 12:55:47;;;;;;;53.65;24.73;;;;;;;4.32;100.00;101146.03;6338535;28;20043;-85
2022/01/16 12:58:53;;;;;;;50.42;23.05;;;;;;;4.44;100.00;101143.84;6335944;28;20130;-85
2022/01/16 13:02:13;;;;;;;46.40;23.83;;;;;;;4.43;100.00;101147.31;6316471;28;20036;-85
2022/01/16 13:05:21;;;;;;;58.08;24.88;;;;;;;4.47;100.00;101141.97;6337898;28;20040;-85
2022/01/16 13:08:28;;;;;;;49.97;24.88;;;;;;;4.40;100.00;101150.84;6334996;28;20514;-85
2022/01/16 13:11:36;;;;;;;49.65;23.40;;;;;;;4.36;100.00;101148.47;6329560;28;20491;-85
2022/01/16 13:14:46;;;;;;;56.35;25.02;;;;;;;4.38;100.00;101155.19;6333918;28;20101;-85
2022/01/16 13:17:48;;;;;;;51.27;24.77;;;;;;;4.52;100.00;101159.69;6306209;28;20044;-85
2022/01/16 13:21:04;;;;;;;55.47;24.75;;;;;;;4.51;100.00;101156.31;6331578;28;20378;-85
2022/01/16 13:24:07;;;;;;;54.00;26.15;;;;;;;4.61;100.00;101163.63;6314710;28;20072;-85
2022/01/16 13:27:18;;;;;;;52.17;25.55;;;;;;;4.59;100.00;101165.41;6326967;28;20114;-85
2022/01/16 13:30:32;;;;;;;51.92;24.73;;;;;;;4.66;100.00;101165.06;6335144;28;20044;-85
2022/01/16 13:33:33;;;;;;;54.17;24.70;;;;;;;4.65;100.00;101165.97;6309949;28;20044;-85
2022/01/16 13:36:37;;;;;;;52.08;25.02;;;;;;;4.69;100.00;101159.78;6327982;28;20484;-85
2022/01/16 13:40:11;;;;;;;51.38;25.98;;;;;;;4.64;100.00;101163.47;6329931;28;20474;-85
2022/01/16 13:43:15;;;;;;;47.35;23.50;;;;;;;4.58;100.00;101164.56;6334869;28;20523;-86
2022/01/16 13:46:17;;;;;;;49.67;24.70;;;;;;;4.48;100.00;101174.41;6333667;28;20043;-86
2022/01/16 13:49:20;;;;;;;53.15;25.88;;;;;;;4.38;100.00;101172.31;6335623;28;20130;-85
2022/01/16 13:52:29;;;;;;;48.10;23.95;;;;;;;4.33;100.00;101175.06;6333436;28;20075;-85
2022/01/16 13:55:49;;;;;;;43.97;22.52;;;;;;;4.26;100.00;101183.91;6327080;28;20091;-85
2022/01/16 13:58:54;;;;;;;54.53;25.67;;;;;;;4.21;100.00;101193.50;6323995;28;20177;-86
2022/01/16 14:01:57;;;;;;;44.13;22.83;;;;;;;4.20;100.00;101191.81;6325052;28;20573;-87
2022/01/16 14:05:01;;;;;;;46.80;22.67;;;;;;;4.16;100.00;101190.31;6317935;28;20154;-90
2022/01/16 14:08:24;;;;;;;45.45;22.73;;;;;;;4.08;100.00;101185.50;6327375;28;20063;-91
2022/01/16 14:11:36;;;;;;;50.70;22.85;;;;;;;4.03;100.00;101180.56;6342837;28;20062;-93
2022/01/16 15:05:56;;;;;;;36.47;19.63;;;;;;;3.78;100.00;101224.25;6410823;23;20078;-92
2022/01/16 15:09:15;;;;;;;43.22;20.52;;;;;;;3.85;100.00;101222.28;6046641;29;20049;-91
2022/01/16 15:12:17;;;;;;;42.83;20.98;;;;;;;3.81;100.00;101231.00;6003938;29;20176;-91
2022/01/16 15:15:21;;;;;;;37.97;19.42;;;;;;;3.84;100.00;101233.41;6003084;29;20230;-91
2022/01/16 15:18:24;;;;;;;38.03;19.50;;;;;;;3.72;100.00;101228.78;5997099;29;20046;-90
2022/01/16 15:24:52;;;;;;;32.13;17.67;;;;;;;3.85;100.00;101238.50;5998368;29;20053;-89
2022/01/16 15:27:56;;;;;;;38.20;18.27;;;;;;;3.86;100.00;101244.44;5994889;29;20579;-89
2022/01/16 15:30:59;;;;;;;38.15;19.05;;;;;;;3.79;100.00;101243.00;5997570;29;20514;-89
2022/01/16 15:34:01;;;;;;;33.05;17.92;;;;;;;3.88;100.00;101255.47;5984922;29;20050;-88
2022/01/16 15:37:05;;;;;;;33.45;17.60;;;;;;;3.84;100.00;101259.84;5992065;29;20596;-88